createdAt,value
2023-03-04T00:03:07.125Z,100.00
2023-03-04T00:07:08.581Z,100.00
2023-03-04T00:11:10.096Z,100.00
2023-03-04T00:15:11.675Z,100.00
2023-03-04T00:19:13.131Z,100.00
2023-03-04T00:23:14.559Z,100.00
2023-03-04T00:27:15.986Z,100.00
2023-03-04T00:31:17.538Z,100.00
2023-03-04T00:35:19.049Z,100.00
2023-03-04T00:39:20.530Z,100.00
2023-03-04T00:43:21.986Z,100.00
2023-03-04T00:47:23.408Z,100.00
2023-03-04T00:51:24.799Z,100.00
2023-03-04T00:55:26.282Z,100.00
2023-03-04T00:59:27.710Z,100.00
2023-03-04T01:03:31.402Z,100.00
2023-03-04T01:07:33.985Z,100.00
2023-03-04T01:11:35.618Z,100.00
2023-03-04T01:15:37.054Z,100.00
2023-03-04T01:19:40.276Z,100.00
2023-03-04T01:23:41.776Z,100.00
2023-03-04T01:27:43.482Z,100.00
2023-03-04T01:31:44.911Z,100.00
2023-03-04T01:35:47.480Z,100.00
2023-03-04T01:39:48.922Z,100.00
2023-03-04T01:43:50.648Z,100.00
2023-03-04T01:47:52.396Z,100.00
2023-03-04T01:51:54.774Z,100.00
2023-03-04T01:56:00.840Z,100.00
2023-03-04T02:00:33.489Z,100.00
2023-03-04T02:04:35.198Z,100.00
2023-03-04T02:08:36.666Z,100.00
2023-03-04T02:12:38.841Z,100.00
2023-03-04T02:16:40.737Z,100.00
2023-03-04T02:20:56.306Z,100.00
2023-03-04T02:25:06.204Z,100.00
2023-03-04T02:29:10.457Z,100.00
2023-03-04T02:33:17.728Z,100.00
2023-03-04T02:37:20.245Z,100.00
2023-03-04T02:41:26.320Z,100.00
2023-03-04T02:45:36.982Z,100.00
2023-03-04T02:49:41.850Z,100.00
2023-03-04T02:53:43.359Z,100.00
2023-03-04T02:57:46.149Z,100.00
2023-03-04T03:01:48.218Z,100.00
2023-03-04T03:05:49.915Z,100.00
2023-03-04T03:09:52.311Z,100.00
2023-03-04T03:13:54.008Z,100.00
2023-03-04T03:17:55.745Z,100.00
2023-03-04T03:21:57.226Z,100.00
2023-03-04T03:25:58.740Z,100.00
2023-03-04T03:30:03.075Z,100.00
2023-03-04T03:34:04.593Z,100.00
2023-03-04T03:38:06.126Z,100.00
2023-03-04T03:42:07.572Z,100.00
2023-03-04T03:46:09.050Z,100.00
2023-03-04T03:50:11.350Z,100.00
2023-03-04T03:54:12.792Z,100.00
2023-03-04T03:58:14.343Z,100.00
2023-03-04T04:02:15.911Z,100.00
2023-03-04T04:06:17.372Z,100.00
2023-03-04T04:10:18.943Z,100.00
2023-03-04T04:14:20.435Z,100.00
2023-03-04T04:18:22.102Z,100.00
2023-03-04T04:22:23.603Z,100.00
2023-03-04T04:26:25.041Z,100.00
2023-03-04T04:30:26.575Z,100.00
2023-03-04T04:34:28.013Z,100.00
2023-03-04T04:38:29.522Z,100.00
2023-03-04T04:42:30.967Z,100.00
2023-03-04T04:46:32.619Z,100.00
2023-03-04T04:50:34.093Z,100.00
2023-03-04T04:54:35.593Z,100.00
2023-03-04T04:58:37.536Z,100.00
2023-03-04T05:02:39.568Z,100.00
2023-03-04T05:06:41.197Z,100.00
2023-03-04T05:10:42.677Z,100.00
2023-03-04T05:14:44.287Z,100.00
2023-03-04T05:18:46.143Z,100.00
2023-03-04T05:22:47.568Z,100.00
2023-03-04T05:26:49.013Z,100.00
2023-03-04T05:30:50.701Z,100.00
2023-03-04T05:34:52.132Z,100.00
2023-03-04T05:38:53.554Z,100.00
2023-03-04T05:42:54.974Z,100.00
2023-03-04T05:46:56.458Z,100.00
2023-03-04T05:51:00.988Z,100.00
2023-03-04T05:55:02.465Z,100.00
2023-03-04T05:59:03.897Z,100.00
2023-03-04T06:03:05.532Z,100.00
2023-03-04T06:07:07.052Z,100.00
2023-03-04T06:11:08.540Z,100.00
2023-03-04T06:15:10.626Z,100.00
2023-03-04T06:19:12.052Z,100.00
2023-03-04T06:23:13.459Z,100.00
2023-03-04T06:27:16.573Z,100.00
2023-03-04T06:31:18.068Z,100.00
2023-03-04T06:35:19.747Z,100.00
2023-03-04T06:39:21.363Z,100.00
2023-03-04T06:43:22.773Z,100.00
2023-03-04T06:47:24.336Z,100.00
2023-03-04T06:51:25.880Z,100.00
2023-03-04T06:55:27.347Z,100.00
2023-03-04T06:59:28.766Z,100.00
2023-03-04T07:03:30.218Z,100.00
2023-03-04T07:07:31.655Z,100.00
2023-03-04T07:11:33.074Z,100.00
2023-03-04T07:15:36.090Z,100.00
2023-03-04T07:19:38.005Z,100.00
2023-03-04T07:23:39.525Z,100.00
2023-03-04T07:27:40.982Z,100.00
2023-03-04T07:31:42.505Z,100.00
2023-03-04T07:35:44.092Z,100.00
2023-03-04T07:39:45.525Z,100.00
2023-03-04T07:43:47.342Z,100.00
2023-03-04T07:47:48.992Z,100.00
2023-03-04T07:51:50.457Z,100.00
2023-03-04T07:55:51.876Z,100.00
2023-03-04T07:59:53.314Z,100.00
2023-03-04T08:03:55.173Z,100.00
2023-03-04T08:07:57.883Z,100.00
2023-03-04T08:11:59.535Z,100.00
2023-03-04T08:16:01.588Z,100.00
2023-03-04T08:20:03.234Z,100.00
2023-03-04T08:24:08.614Z,100.00
2023-03-04T08:28:10.427Z,100.00
2023-03-04T08:32:11.978Z,100.00
2023-03-04T08:36:14.770Z,100.00
2023-03-04T08:40:16.371Z,100.00
2023-03-04T08:44:17.976Z,100.00
2023-03-04T08:48:20.053Z,100.00
2023-03-04T08:52:21.476Z,100.00
2023-03-04T08:56:23.006Z,100.00
2023-03-04T09:00:24.460Z,100.00
2023-03-04T09:04:25.845Z,100.00
2023-03-04T09:08:27.281Z,100.00
2023-03-04T09:12:28.941Z,100.00
2023-03-04T09:16:30.430Z,100.00
2023-03-04T09:54:54.162Z,100.00
2023-03-04T09:59:12.405Z,100.00
2023-03-04T10:03:13.866Z,100.00
2023-03-04T10:07:23.630Z,100.00
2023-03-04T10:11:32.340Z,100.00
2023-03-04T10:15:40.371Z,100.00
2023-03-04T10:19:52.386Z,100.00
2023-03-04T10:23:54.304Z,100.00
2023-03-04T10:27:55.775Z,100.00
2023-03-04T10:31:57.301Z,100.00
2023-03-04T10:36:33.787Z,100.00
2023-03-04T10:40:40.245Z,100.00
2023-03-04T10:44:43.918Z,100.00
2023-03-04T10:48:45.386Z,100.00
2023-03-04T10:52:53.187Z,100.00
2023-03-04T10:57:01.575Z,100.00
2023-03-04T11:01:06.666Z,100.00
2023-03-04T11:05:20.293Z,100.00
2023-03-04T11:09:29.341Z,100.00
2023-03-04T11:13:31.489Z,100.00
2023-03-04T11:17:47.287Z,100.00
2023-03-04T11:21:49.424Z,100.00
2023-03-04T11:25:59.914Z,100.00
2023-03-04T11:30:30.562Z,100.00
2023-03-04T11:34:46.545Z,100.00
2023-03-04T11:38:49.992Z,100.00
2023-03-04T11:42:59.729Z,100.00
2023-03-04T11:47:28.691Z,100.00
2023-03-04T11:52:14.334Z,100.00
2023-03-04T11:56:53.473Z,100.00
2023-03-04T12:01:15.130Z,100.00
2023-03-04T12:05:26.268Z,100.00
2023-03-04T12:09:57.133Z,100.00
2023-03-04T12:14:11.104Z,95.41
2023-03-04T12:18:58.012Z,93.39
2023-03-04T12:22:59.532Z,88.84
2023-03-04T12:27:09.969Z,87.71
2023-03-04T12:31:30.308Z,86.03
2023-03-04T12:36:03.771Z,77.42
2023-03-04T12:40:30.958Z,74.75
2023-03-04T12:44:46.523Z,70.33
2023-03-04T12:49:16.893Z,65.92
2023-03-04T12:53:30.225Z,60.82
2023-03-04T12:57:33.231Z,49.05
2023-03-04T13:02:13.613Z,43.98
2023-03-04T13:06:28.427Z,45.48
2023-03-04T13:10:30.309Z,45.23
2023-03-04T13:14:33.131Z,45.31
2023-03-04T13:18:36.812Z,46.03
2023-03-04T13:22:38.180Z,46.08
2023-03-04T13:26:40.440Z,47.16
2023-03-04T13:30:59.260Z,46.39
2023-03-04T13:35:00.696Z,45.23
2023-03-04T13:39:22.253Z,44.37
2023-03-04T13:43:28.900Z,45.23
2023-03-04T13:47:40.007Z,46.17
2023-03-04T13:51:44.985Z,50.95
2023-03-04T13:56:04.793Z,49.52
2023-03-04T14:00:12.330Z,48.10
2023-03-04T14:04:20.106Z,45.79
2023-03-04T14:08:25.515Z,45.14
2023-03-04T14:12:32.306Z,45.04
2023-03-04T14:16:40.015Z,46.47
2023-03-04T14:20:49.097Z,45.49
2023-03-04T14:25:19.389Z,45.73
2023-03-04T14:29:27.297Z,42.46
2023-03-04T14:33:30.389Z,43.77
2023-03-04T14:37:43.844Z,43.93
2023-03-04T14:41:47.794Z,45.10
2023-03-04T14:45:52.655Z,45.48
2023-03-04T14:49:54.693Z,43.59
2023-03-04T14:53:56.778Z,45.25
2023-03-04T14:58:28.561Z,44.40
2023-03-04T15:02:43.293Z,44.12
2023-03-04T15:06:53.629Z,45.39
2023-03-04T15:11:03.691Z,46.04
2023-03-04T15:15:36.922Z,46.45
2023-03-04T15:19:38.449Z,46.10
2023-03-04T15:23:39.849Z,47.18
2023-03-04T15:27:42.660Z,46.72
2023-03-04T15:31:48.151Z,45.17
2023-03-04T15:35:54.713Z,46.00
2023-03-04T15:39:57.901Z,45.15
2023-03-04T15:43:59.321Z,45.44
2023-03-04T15:48:00.806Z,44.25
2023-03-04T15:52:06.602Z,45.11
2023-03-04T15:56:13.794Z,45.85
2023-03-04T16:00:16.763Z,46.77
2023-03-04T16:04:18.370Z,46.83
2023-03-04T16:08:22.202Z,49.43
2023-03-04T16:12:26.986Z,48.91
2023-03-04T16:16:28.464Z,51.42
2023-03-04T16:20:30.553Z,52.62
2023-03-04T16:24:34.480Z,51.41
2023-03-04T16:28:35.893Z,53.64
2023-03-04T16:32:37.328Z,57.44
2023-03-04T16:36:38.858Z,58.80
2023-03-04T16:40:40.318Z,60.71
2023-03-04T16:44:41.775Z,64.91
2023-03-04T16:48:43.221Z,71.64
2023-03-04T16:52:46.770Z,76.04
2023-03-04T16:56:48.195Z,76.81
2023-03-04T17:00:49.746Z,75.03
2023-03-04T17:04:52.295Z,76.01
2023-03-04T17:08:53.696Z,74.99
2023-03-04T17:12:56.897Z,75.53
2023-03-04T17:17:02.824Z,76.05
2023-03-04T17:21:07.161Z,77.24
2023-03-04T17:25:09.322Z,75.33
2023-03-04T17:29:10.731Z,77.69
2023-03-04T17:33:12.129Z,74.78
2023-03-04T17:37:14.232Z,74.24
2023-03-04T17:41:18.039Z,73.10
2023-03-04T17:45:19.566Z,66.96
2023-03-04T17:49:21.235Z,60.91
2023-03-04T17:53:22.902Z,56.97
2023-03-04T17:57:24.290Z,52.45
2023-03-04T18:01:26.316Z,51.09
2023-03-04T18:05:27.777Z,50.87
2023-03-04T18:09:29.198Z,53.04
2023-03-04T18:13:31.046Z,50.98
2023-03-04T18:17:32.731Z,52.31
2023-03-04T18:21:34.157Z,54.11
2023-03-04T18:25:36.272Z,56.86
2023-03-04T18:29:37.710Z,57.21
2023-03-04T18:33:39.700Z,57.95
2023-03-04T18:37:42.214Z,56.28
2023-03-04T18:41:43.994Z,58.80
2023-03-04T18:45:47.360Z,59.54
2023-03-04T18:49:49.908Z,60.64
2023-03-04T18:53:51.445Z,62.79
2023-03-04T18:57:55.856Z,62.96
2023-03-04T19:02:01.572Z,64.89
2023-03-04T19:06:04.104Z,67.92
2023-03-04T19:10:06.382Z,65.98
2023-03-04T19:14:07.967Z,66.88
2023-03-04T19:18:09.788Z,67.41
2023-03-04T19:22:11.354Z,65.63
2023-03-04T19:26:13.745Z,61.75
2023-03-04T19:30:15.378Z,60.81
2023-03-04T19:34:16.976Z,60.23
2023-03-04T19:38:18.395Z,60.34
2023-03-04T19:42:19.857Z,63.88
2023-03-04T19:46:21.449Z,64.09
2023-03-04T19:50:22.921Z,62.15
2023-03-04T19:54:24.814Z,65.63
2023-03-04T19:58:26.370Z,64.61
2023-03-04T20:02:27.781Z,65.00
2023-03-04T20:06:30.423Z,67.42
2023-03-04T20:10:36.563Z,67.73
2023-03-04T20:14:39.210Z,65.27
2023-03-04T20:18:42.274Z,66.46
2023-03-04T20:22:43.710Z,67.48
2023-03-04T20:26:45.774Z,67.62
2023-03-04T20:30:47.278Z,66.27
2023-03-04T20:34:53.895Z,64.97
2023-03-04T20:39:02.465Z,65.91
2023-03-04T20:43:06.771Z,68.62
2023-03-04T20:47:08.285Z,71.93
2023-03-04T20:51:09.709Z,73.98
2023-03-04T20:55:11.763Z,73.52
2023-03-04T20:59:13.503Z,73.45
2023-03-04T21:03:14.928Z,73.66
2023-03-04T21:07:16.398Z,74.02
2023-03-04T21:11:18.011Z,74.09
2023-03-04T21:15:19.527Z,73.58
2023-03-04T21:19:27.468Z,73.18
2023-03-04T21:23:28.917Z,73.03
2023-03-04T21:27:30.338Z,73.45
2023-03-04T21:31:36.945Z,75.70
2023-03-04T21:35:38.436Z,77.87
2023-03-04T21:39:40.112Z,78.23
2023-03-04T21:43:41.858Z,77.61
2023-03-04T21:47:43.293Z,77.61
2023-03-04T21:51:44.926Z,77.58
2023-03-04T21:55:47.027Z,76.90
2023-03-04T21:59:48.813Z,77.18
2023-03-04T22:03:51.297Z,76.68
2023-03-04T22:07:52.725Z,77.11
2023-03-04T22:11:54.160Z,78.04
2023-03-04T22:15:57.797Z,77.92
2023-03-04T22:19:59.338Z,79.64
2023-03-04T22:24:00.754Z,82.55
2023-03-04T22:28:02.638Z,83.37
2023-03-04T22:32:04.464Z,85.69
2023-03-04T22:36:06.430Z,84.86
2023-03-04T22:40:11.398Z,86.69
2023-03-04T22:44:13.958Z,88.30
2023-03-04T22:48:15.476Z,90.66
2023-03-04T22:52:17.301Z,90.40
2023-03-04T22:56:19.154Z,90.87
2023-03-04T23:00:24.778Z,88.74
2023-03-04T23:04:26.257Z,87.15
2023-03-04T23:08:27.680Z,85.03
2023-03-04T23:12:29.101Z,84.15
2023-03-04T23:16:30.696Z,82.95
2023-03-04T23:20:32.682Z,83.79
2023-03-04T23:24:34.124Z,82.77
2023-03-04T23:28:35.537Z,86.21
2023-03-04T23:32:37.019Z,86.56
2023-03-04T23:36:38.683Z,88.20
2023-03-04T23:40:40.119Z,88.18
2023-03-04T23:44:42.016Z,83.25
2023-03-04T23:48:46.370Z,77.12
2023-03-04T23:52:49.600Z,78.51
2023-03-04T23:56:51.260Z,77.19
